createdAt,value
2018-04-27T00:01:47.351Z,50.70
2018-04-27T00:04:20.390Z,51.00
2018-04-27T00:06:47.856Z,51.20
2018-04-27T00:09:15.362Z,51.50
2018-04-27T00:11:42.825Z,51.60
2018-04-27T00:14:10.582Z,51.60
2018-04-27T00:16:38.048Z,51.70
2018-04-27T00:19:05.678Z,51.70
2018-04-27T00:21:33.168Z,51.70
2018-04-27T00:24:00.624Z,51.80
2018-04-27T00:26:28.170Z,52.00
2018-04-27T00:28:55.816Z,52.10
2018-04-27T00:31:23.394Z,52.30
2018-04-27T00:33:51.034Z,52.20
2018-04-27T00:36:18.494Z,52.10
2018-04-27T00:38:46.065Z,52.10
2018-04-27T00:41:13.519Z,52.50
2018-04-27T00:43:40.981Z,51.90
2018-04-27T00:46:08.437Z,51.90
2018-04-27T00:48:36.090Z,51.80
2018-04-27T00:51:03.546Z,51.70
2018-04-27T00:53:31.043Z,52.00
2018-04-27T00:55:58.574Z,52.10
2018-04-27T00:58:26.217Z,52.40
2018-04-27T01:00:53.679Z,52.50
2018-04-27T01:03:21.178Z,52.60
2018-04-27T01:05:48.639Z,52.60
2018-04-27T01:08:16.136Z,52.60
2018-04-27T01:10:43.621Z,52.80
2018-04-27T01:13:11.081Z,52.80
2018-04-27T01:15:38.533Z,52.80
2018-04-27T01:18:06.106Z,52.70
2018-04-27T01:20:33.758Z,52.70
2018-04-27T01:23:01.225Z,53.00
2018-04-27T01:25:28.878Z,53.50
2018-04-27T01:27:56.334Z,52.70
2018-04-27T01:30:23.797Z,52.60
2018-04-27T01:32:51.346Z,53.60
2018-04-27T01:35:18.798Z,53.70
2018-04-27T01:37:46.266Z,53.70
2018-04-27T01:40:14.017Z,53.90
2018-04-27T01:42:41.474Z,54.10
2018-04-27T01:45:09.250Z,54.40
2018-04-27T01:47:36.701Z,54.60
2018-04-27T01:50:04.345Z,54.80
2018-04-27T01:52:31.834Z,54.90
2018-04-27T01:54:59.293Z,54.90
2018-04-27T01:57:26.746Z,55.10
2018-04-27T01:59:54.207Z,55.20
2018-04-27T02:02:21.750Z,55.30
2018-04-27T02:04:49.518Z,55.30
2018-04-27T02:07:17.277Z,55.30
2018-04-27T02:09:44.741Z,55.20
2018-04-27T02:12:12.189Z,55.10
2018-04-27T02:14:39.655Z,55.10
2018-04-27T02:17:07.117Z,55.00
2018-04-27T02:19:34.777Z,55.40
2018-04-27T02:22:03.165Z,55.20
2018-04-27T02:24:30.618Z,55.20
2018-04-27T02:26:58.074Z,55.20
2018-04-27T02:29:25.522Z,55.30
2018-04-27T02:31:52.994Z,55.30
2018-04-27T02:34:20.541Z,55.30
2018-04-27T02:36:48.357Z,55.30
2018-04-27T02:39:15.965Z,55.50
2018-04-27T02:41:43.421Z,55.70
2018-04-27T02:44:11.793Z,56.00
2018-04-27T02:46:39.340Z,55.90
2018-04-27T02:49:06.814Z,56.20
2018-04-27T02:51:34.573Z,56.20
2018-04-27T02:54:02.018Z,56.20
2018-04-27T02:56:29.786Z,56.20
2018-04-27T02:58:57.237Z,56.40
2018-04-27T03:01:25.011Z,57.00
2018-04-27T03:03:52.470Z,56.60
2018-04-27T03:06:19.925Z,56.70
2018-04-27T03:08:47.690Z,56.80
2018-04-27T03:11:15.458Z,56.80
2018-04-27T03:13:43.218Z,56.70
2018-04-27T03:16:10.857Z,56.70
2018-04-27T03:18:38.353Z,56.90
2018-04-27T03:21:05.896Z,56.90
2018-04-27T03:23:33.362Z,57.10
2018-04-27T03:26:01.121Z,57.00
2018-04-27T03:28:28.686Z,57.00
2018-04-27T03:30:56.915Z,57.30
2018-04-27T03:33:24.401Z,57.20
2018-04-27T03:35:52.037Z,57.30
2018-04-27T03:38:19.635Z,57.30
2018-04-27T03:40:47.087Z,57.40
2018-04-27T03:43:14.551Z,57.40
2018-04-27T03:45:42.197Z,57.20
2018-04-27T03:48:09.668Z,57.30
2018-04-27T03:50:37.114Z,57.40
2018-04-27T03:53:04.674Z,57.40
2018-04-27T03:55:32.307Z,57.60
2018-04-27T03:57:59.894Z,57.70
2018-04-27T04:00:39.137Z,57.60
2018-04-27T04:03:18.777Z,57.60
2018-04-27T04:05:46.226Z,57.40
2018-04-27T04:08:13.990Z,57.30
2018-04-27T04:10:41.758Z,57.50
2018-04-27T04:13:09.211Z,57.60
2018-04-27T04:15:36.677Z,57.50
2018-04-27T04:18:04.346Z,57.50
2018-04-27T04:20:31.797Z,57.50
2018-04-27T04:23:00.266Z,57.60
2018-04-27T04:25:27.725Z,57.50
2018-04-27T04:27:55.353Z,57.60
2018-04-27T04:30:22.938Z,57.80
2018-04-27T04:32:50.588Z,57.70
2018-04-27T04:35:18.157Z,57.70
2018-04-27T04:37:45.618Z,57.80
2018-04-27T04:40:13.258Z,57.70
2018-04-27T04:42:40.709Z,57.70
2018-04-27T04:45:08.204Z,57.80
2018-04-27T04:47:35.662Z,57.90
2018-04-27T04:50:03.134Z,57.90
2018-04-27T04:52:30.779Z,58.00
2018-04-27T04:54:58.425Z,58.50
2018-04-27T04:57:26.073Z,58.10
2018-04-27T04:59:53.535Z,58.10
2018-04-27T05:02:21.025Z,58.20
2018-04-27T05:04:48.494Z,58.20
2018-04-27T05:07:16.022Z,58.30
2018-04-27T05:09:43.775Z,58.60
2018-04-27T05:12:11.549Z,58.50
2018-04-27T05:14:39.007Z,58.60
2018-04-27T05:17:06.665Z,58.60
2018-04-27T05:19:34.384Z,58.50
2018-04-27T05:22:01.910Z,58.40
2018-04-27T05:24:29.369Z,58.50
2018-04-27T05:26:56.901Z,59.00
2018-04-27T05:29:24.356Z,58.20
2018-04-27T05:31:51.817Z,58.20
2018-04-27T05:34:19.291Z,58.20
2018-04-27T05:36:47.760Z,58.60
2018-04-27T05:39:15.215Z,57.80
2018-04-27T05:41:42.667Z,57.80
2018-04-27T05:44:10.242Z,57.90
2018-04-27T05:46:37.694Z,57.70
2018-04-27T05:49:05.497Z,57.70
2018-04-27T05:51:32.858Z,57.70
2018-04-27T05:54:00.317Z,57.60
2018-04-27T05:56:27.770Z,57.50
2018-04-27T05:58:55.233Z,57.50
2018-04-27T06:01:22.678Z,57.30
2018-04-27T06:04:01.949Z,57.40
2018-04-27T06:06:29.422Z,57.30
2018-04-27T06:08:56.882Z,57.10
2018-04-27T06:11:24.344Z,57.00
2018-04-27T06:13:51.948Z,56.80
2018-04-27T06:16:19.389Z,56.80
2018-04-27T06:18:46.862Z,56.50
2018-04-27T06:21:14.311Z,56.40
2018-04-27T06:23:41.781Z,56.20
2018-04-27T06:26:09.241Z,55.10
2018-04-27T06:28:51.313Z,54.90
2018-04-27T06:31:18.765Z,54.90
2018-04-27T06:33:46.345Z,54.80
2018-04-27T06:36:13.810Z,54.60
2018-04-27T06:38:41.269Z,54.50
2018-04-27T06:41:08.734Z,54.30
2018-04-27T06:43:36.202Z,54.20
2018-04-27T06:46:03.653Z,54.20
2018-04-27T06:48:31.110Z,54.00
2018-04-27T06:50:58.593Z,53.80
2018-04-27T06:53:26.058Z,53.70
2018-04-27T06:55:53.535Z,53.50
2018-04-27T06:58:21.838Z,53.30
2018-04-27T07:00:49.302Z,53.30
2018-04-27T07:03:17.314Z,53.10
2018-04-27T07:05:44.778Z,52.80
2018-04-27T07:08:12.234Z,52.50
2018-04-27T07:10:39.717Z,52.20
2018-04-27T07:13:07.172Z,52.10
2018-04-27T07:15:34.644Z,51.90
2018-04-27T07:18:02.103Z,51.60
2018-04-27T07:20:29.590Z,51.30
2018-04-27T07:22:57.045Z,50.90
2018-04-27T07:25:24.513Z,50.60
2018-04-27T07:27:51.979Z,50.40
2018-04-27T07:30:19.529Z,50.20
2018-04-27T07:32:47.015Z,50.20
2018-04-27T07:35:14.476Z,49.90
2018-04-27T07:37:42.737Z,49.40
2018-04-27T07:40:10.290Z,49.40
2018-04-27T07:42:37.708Z,49.40
2018-04-27T07:45:05.158Z,49.40
2018-04-27T07:47:32.629Z,49.50
2018-04-27T07:50:00.089Z,49.50
2018-04-27T07:52:27.569Z,49.40
2018-04-27T07:54:55.029Z,49.10
2018-04-27T07:57:22.494Z,48.90
2018-04-27T07:59:49.980Z,48.70
2018-04-27T08:02:17.642Z,48.60
2018-04-27T08:04:45.043Z,48.30
2018-04-27T08:07:12.519Z,48.20
2018-04-27T08:09:39.973Z,48.10
2018-04-27T08:12:07.442Z,48.00
2018-04-27T08:14:34.901Z,47.90
2018-04-27T08:17:02.403Z,47.80
2018-04-27T08:19:29.857Z,47.70
2018-04-27T08:21:57.313Z,47.60
2018-04-27T08:24:24.784Z,47.50
2018-04-27T08:26:52.477Z,47.40
2018-04-27T08:29:19.895Z,47.40
2018-04-27T08:31:47.353Z,47.00
2018-04-27T08:34:14.813Z,47.50
2018-04-27T08:36:42.269Z,46.50
2018-04-27T08:39:09.754Z,46.10
2018-04-27T08:41:38.229Z,45.70
2018-04-27T08:44:05.849Z,45.50
2018-04-27T08:46:33.289Z,45.20
2018-04-27T08:49:00.761Z,44.70
2018-04-27T08:51:28.226Z,44.40
2018-04-27T08:53:55.704Z,44.20
2018-04-27T08:56:23.162Z,43.90
2018-04-27T08:58:50.638Z,43.80
2018-04-27T09:01:18.153Z,43.70
2018-04-27T09:03:45.622Z,43.60
2018-04-27T09:06:13.164Z,43.40
2018-04-27T09:08:40.542Z,43.20
2018-04-27T09:11:08.049Z,42.90
2018-04-27T09:13:36.290Z,42.40
2018-04-27T09:16:03.762Z,42.40
2018-04-27T09:18:31.218Z,42.20
2018-04-27T09:20:58.724Z,42.20
2018-04-27T09:23:26.186Z,42.30
2018-04-27T09:25:53.649Z,42.20
2018-04-27T09:28:21.097Z,42.10
2018-04-27T09:30:48.562Z,41.90
2018-04-27T09:33:16.014Z,41.60
2018-04-27T09:35:43.473Z,41.40
2018-04-27T09:38:11.127Z,41.20
2018-04-27T09:40:38.591Z,41.00
2018-04-27T09:43:06.059Z,41.00
2018-04-27T09:45:33.537Z,40.90
2018-04-27T09:48:00.990Z,40.60
2018-04-27T09:50:28.450Z,40.20
2018-04-27T09:52:55.925Z,39.80
2018-04-27T09:55:23.388Z,39.40
2018-04-27T09:57:50.841Z,38.90
2018-04-27T10:00:18.332Z,38.70
2018-04-27T10:02:45.999Z,38.20
2018-04-27T10:05:13.446Z,37.80
2018-04-27T10:07:41.068Z,37.50
2018-04-27T10:10:08.520Z,37.30
2018-04-27T10:12:35.997Z,36.80
2018-04-27T10:15:04.369Z,36.60
2018-04-27T10:17:31.821Z,36.60
2018-04-27T10:19:59.279Z,36.50
2018-04-27T10:22:26.746Z,36.90
2018-04-27T10:24:54.974Z,36.10
2018-04-27T10:27:22.446Z,36.00
2018-04-27T10:29:49.897Z,35.90
2018-04-27T10:32:17.398Z,35.80
2018-04-27T10:34:44.852Z,35.80
2018-04-27T10:37:13.093Z,36.50
2018-04-27T10:39:40.545Z,35.90
2018-04-27T10:42:08.001Z,35.90
2018-04-27T10:44:35.678Z,35.90
2018-04-27T10:47:03.174Z,36.10
2018-04-27T10:49:30.621Z,36.00
2018-04-27T10:51:58.078Z,35.80
2018-04-27T10:54:25.542Z,35.60
2018-04-27T10:56:52.989Z,35.30
2018-04-27T10:59:20.465Z,35.10
2018-04-27T11:01:47.917Z,35.10
2018-04-27T11:04:15.386Z,34.90
2018-04-27T11:06:42.839Z,34.80
2018-04-27T11:09:10.316Z,34.70
2018-04-27T11:11:37.779Z,35.00
2018-04-27T11:14:05.283Z,35.00
2018-04-27T11:16:33.514Z,35.70
2018-04-27T11:19:00.983Z,35.00
2018-04-27T11:21:28.454Z,34.90
2018-04-27T11:23:55.917Z,34.70
2018-04-27T11:26:23.370Z,34.70
2018-04-27T11:28:50.845Z,34.60
2018-04-27T11:31:19.061Z,35.30
2018-04-27T11:33:46.593Z,35.20
2018-04-27T11:36:14.046Z,35.10
2018-04-27T11:38:41.516Z,35.00
2018-04-27T11:41:09.039Z,35.00
2018-04-27T11:43:36.422Z,34.90
2018-04-27T11:46:03.884Z,34.80
2018-04-27T11:48:31.347Z,34.70
2018-04-27T11:50:58.814Z,34.70
2018-04-27T11:53:26.269Z,34.70
2018-04-27T11:55:53.923Z,34.40
2018-04-27T11:58:23.823Z,34.10
2018-04-27T12:00:52.045Z,34.10
2018-04-27T12:03:19.502Z,34.10
2018-04-27T12:05:47.129Z,34.00
2018-04-27T12:08:14.585Z,34.00
2018-04-27T12:10:42.115Z,33.90
2018-04-27T12:13:09.510Z,33.70
2018-04-27T12:15:36.985Z,33.50
2018-04-27T12:18:04.434Z,33.20
2018-04-27T12:20:31.903Z,33.00
2018-04-27T12:22:59.554Z,32.90
2018-04-27T12:25:27.038Z,33.00
2018-04-27T12:27:54.498Z,32.90
2018-04-27T12:30:21.985Z,32.90
2018-04-27T12:32:49.442Z,32.70
2018-04-27T12:35:16.918Z,32.60
2018-04-27T12:37:44.386Z,32.70
2018-04-27T12:40:11.837Z,32.70
2018-04-27T12:42:39.305Z,32.60
2018-04-27T12:45:06.864Z,32.90
2018-04-27T12:47:34.258Z,33.00
2018-04-27T12:50:01.721Z,32.80
2018-04-27T12:52:29.186Z,32.70
2018-04-27T12:54:57.402Z,32.60
2018-04-27T12:57:24.873Z,32.60
2018-04-27T12:59:52.330Z,32.60
2018-04-27T13:02:19.790Z,32.50
2018-04-27T13:04:47.248Z,32.30
2018-04-27T13:07:14.706Z,32.30
2018-04-27T13:09:42.161Z,32.20
2018-04-27T13:12:09.627Z,32.20
2018-04-27T13:14:37.293Z,32.40
2018-04-27T13:17:04.769Z,32.50
2018-04-27T13:19:32.242Z,32.50
2018-04-27T13:21:59.700Z,32.30
2018-04-27T13:24:27.170Z,32.30
2018-04-27T13:26:54.618Z,32.30
2018-04-27T13:29:22.090Z,32.00
2018-04-27T13:31:49.550Z,31.80
2018-04-27T13:34:17.019Z,31.90
2018-04-27T13:36:44.478Z,31.80
2018-04-27T13:39:11.950Z,31.80
2018-04-27T13:41:39.405Z,31.90
2018-04-27T13:44:06.878Z,31.70
2018-04-27T13:46:35.132Z,31.60
2018-04-27T13:49:02.600Z,31.50
2018-04-27T13:51:30.834Z,31.00
2018-04-27T13:53:58.298Z,31.00
2018-04-27T13:56:25.757Z,30.80
2018-04-27T13:58:53.515Z,30.80
2018-04-27T14:01:20.961Z,30.40
2018-04-27T14:03:48.438Z,29.30
2018-04-27T14:06:15.890Z,28.70
2018-04-27T14:08:43.358Z,28.70
2018-04-27T14:11:10.805Z,28.50
2018-04-27T14:13:38.265Z,28.30
2018-04-27T14:16:05.749Z,27.90
2018-04-27T14:18:33.400Z,27.70
2018-04-27T14:21:00.867Z,27.50
2018-04-27T14:23:28.326Z,27.30
2018-04-27T14:25:55.790Z,26.90
2018-04-27T14:28:23.249Z,26.10
2018-04-27T14:30:50.726Z,25.80
2018-04-27T14:33:18.947Z,25.70
2018-04-27T14:35:46.417Z,25.40
2018-04-27T14:38:13.870Z,25.70
2018-04-27T14:40:42.100Z,25.80
2018-04-27T14:43:10.323Z,26.20
2018-04-27T14:45:37.793Z,26.20
2018-04-27T14:48:05.245Z,26.70
2018-04-27T14:50:32.715Z,27.00
2018-04-27T14:53:00.171Z,27.20
2018-04-27T14:55:27.623Z,27.60
2018-04-27T14:57:55.094Z,27.90
2018-04-27T15:00:23.644Z,28.00
2018-04-27T15:02:51.146Z,27.80
2018-04-27T15:05:18.631Z,27.80
2018-04-27T15:07:46.128Z,28.00
2018-04-27T15:10:13.654Z,28.10
2018-04-27T15:12:41.215Z,28.20
2018-04-27T15:15:08.734Z,28.10
2018-04-27T15:17:36.239Z,28.20
2018-04-27T15:20:03.703Z,28.10
2018-04-27T15:22:31.179Z,28.00
2018-04-27T15:24:58.686Z,28.20
2018-04-27T15:27:26.207Z,28.70
2018-04-27T15:29:53.683Z,28.40
2018-04-27T15:32:21.962Z,29.10
2018-04-27T15:34:49.461Z,28.80
2018-04-27T15:37:17.322Z,28.70
2018-04-27T15:39:44.824Z,28.80
2018-04-27T15:42:13.219Z,28.80
2018-04-27T15:44:40.739Z,28.70
2018-04-27T15:47:08.280Z,28.70
2018-04-27T15:49:35.724Z,28.60
2018-04-27T15:52:03.222Z,28.70
2018-04-27T15:54:30.758Z,28.80
2018-04-27T15:56:58.302Z,28.80
2018-04-27T15:59:25.835Z,29.10
2018-04-27T16:01:53.365Z,29.60
2018-04-27T16:04:20.842Z,29.60
2018-04-27T16:06:49.090Z,29.20
2018-04-27T16:09:16.590Z,29.20
2018-04-27T16:11:44.144Z,29.20
2018-04-27T16:14:11.579Z,29.10
2018-04-27T16:16:39.055Z,29.20
2018-04-27T16:19:07.311Z,29.50
2018-04-27T16:21:34.816Z,29.50
2018-04-27T16:24:02.429Z,29.30
2018-04-27T16:26:30.831Z,29.20
2018-04-27T16:28:58.343Z,29.60
2018-04-27T16:31:25.849Z,29.30
2018-04-27T16:33:53.338Z,29.40
2018-04-27T16:36:20.865Z,29.50
2018-04-27T16:38:49.136Z,29.60
2018-04-27T16:41:16.624Z,29.60
2018-04-27T16:43:44.114Z,29.40
2018-04-27T16:46:11.602Z,29.60
2018-04-27T16:48:39.852Z,30.20
2018-04-27T16:51:07.364Z,29.70
2018-04-27T16:53:34.869Z,29.90
2018-04-27T16:56:02.342Z,30.10
2018-04-27T16:58:30.601Z,30.30
2018-04-27T17:00:58.079Z,30.30
2018-04-27T17:03:25.587Z,30.00
2018-04-27T17:05:53.070Z,30.00
2018-04-27T17:08:20.550Z,29.80
2018-04-27T17:10:48.025Z,29.90
2018-04-27T17:13:17.085Z,30.70
2018-04-27T17:15:44.542Z,30.60
2018-04-27T17:18:13.012Z,30.90
2018-04-27T17:20:40.579Z,30.90
2018-04-27T17:23:08.052Z,31.70
2018-04-27T17:25:35.570Z,32.40
2018-04-27T17:28:03.060Z,33.00
2018-04-27T17:30:30.535Z,33.80
2018-04-27T17:32:58.026Z,34.00
2018-04-27T17:35:25.527Z,33.60
2018-04-27T17:37:53.002Z,33.50
2018-04-27T17:40:20.568Z,33.80
2018-04-27T17:42:48.850Z,33.80
2018-04-27T17:45:17.122Z,33.80
2018-04-27T17:47:44.618Z,33.70
2018-04-27T17:50:12.144Z,33.50
2018-04-27T17:52:39.666Z,33.50
2018-04-27T17:55:07.139Z,33.50
2018-04-27T17:57:34.602Z,33.40
2018-04-27T18:00:02.137Z,33.50
2018-04-27T18:02:29.650Z,34.00
2018-04-27T18:04:57.176Z,34.50
2018-04-27T18:07:25.483Z,35.50
2018-04-27T18:09:53.004Z,34.90
2018-04-27T18:12:20.559Z,35.00
2018-04-27T18:14:48.098Z,35.30
2018-04-27T18:17:15.601Z,35.50
2018-04-27T18:19:43.884Z,36.20
2018-04-27T18:22:12.228Z,36.10
2018-04-27T18:24:39.708Z,36.10
2018-04-27T18:27:07.995Z,36.80
2018-04-27T18:29:35.511Z,36.70
2018-04-27T18:32:03.090Z,37.00
2018-04-27T18:34:30.616Z,37.20
2018-04-27T18:36:58.159Z,37.50
2018-04-27T18:39:25.690Z,37.60
2018-04-27T18:41:53.969Z,37.90
2018-04-27T18:44:21.522Z,37.90
2018-04-27T18:46:49.898Z,38.20
2018-04-27T18:49:18.950Z,38.30
2018-04-27T18:51:46.438Z,38.20
2018-04-27T18:54:13.997Z,38.40
2018-04-27T18:56:42.286Z,38.70
2018-04-27T18:59:10.625Z,39.00
2018-04-27T19:01:38.139Z,39.00
2018-04-27T19:04:05.638Z,39.20
2018-04-27T19:06:33.169Z,39.50
2018-04-27T19:09:00.678Z,39.80
2018-04-27T19:11:28.156Z,40.00
2018-04-27T19:13:57.414Z,40.40
2018-04-27T19:16:24.930Z,40.30
2018-04-27T19:18:56.182Z,40.70
2018-04-27T19:21:23.687Z,40.60
2018-04-27T19:23:54.532Z,40.90
2018-04-27T19:26:22.026Z,41.20
2018-04-27T19:28:50.391Z,41.50
2018-04-27T19:31:19.371Z,42.10
2018-04-27T19:33:46.894Z,42.20
2018-04-27T19:36:14.467Z,42.30
2018-04-27T19:38:41.946Z,42.50
2018-04-27T19:41:09.480Z,42.70
2018-04-27T19:43:36.980Z,42.80
2018-04-27T19:46:04.457Z,43.00
2018-04-27T19:48:31.966Z,43.30
2018-04-27T19:50:59.505Z,43.40
2018-04-27T19:53:27.788Z,43.60
2018-04-27T19:55:55.272Z,44.40
2018-04-27T19:58:24.246Z,44.20
2018-04-27T20:00:51.796Z,44.20
2018-04-27T20:03:19.314Z,44.70
2018-04-27T20:05:46.838Z,45.20
2018-04-27T20:08:15.138Z,46.40
2018-04-27T20:10:42.736Z,46.40
2018-04-27T20:13:11.966Z,46.80
2018-04-27T20:15:44.166Z,47.00
2018-04-27T20:18:17.307Z,47.10
2018-04-27T20:20:45.655Z,47.10
2018-04-27T20:23:14.091Z,47.10
2018-04-27T20:25:42.463Z,47.20
2018-04-27T20:28:09.946Z,47.40
2018-04-27T20:30:38.669Z,47.50
2018-04-27T20:33:06.182Z,47.60
2018-04-27T20:35:34.492Z,47.80
2018-04-27T20:38:02.773Z,47.70
2018-04-27T20:40:31.078Z,47.80
2018-04-27T20:43:02.389Z,47.70
2018-04-27T20:45:29.902Z,47.80
2018-04-27T20:47:58.147Z,48.20
2018-04-27T20:50:27.026Z,48.10
2018-04-27T20:53:03.580Z,48.50
2018-04-27T20:55:31.149Z,48.70
2018-04-27T20:57:59.217Z,49.00
2018-04-27T21:00:28.075Z,49.10
2018-04-27T21:02:55.626Z,49.30
2018-04-27T21:05:23.899Z,49.60
2018-04-27T21:07:51.410Z,49.50
2018-04-27T21:10:19.738Z,49.60
2018-04-27T21:12:48.809Z,50.00
2018-04-27T21:15:16.505Z,49.90
2018-04-27T21:17:45.476Z,50.10
2018-04-27T21:20:15.560Z,50.20
2018-04-27T21:22:43.725Z,50.40
2018-04-27T21:25:12.036Z,50.50
2018-04-27T21:27:43.071Z,50.80
2018-04-27T21:30:12.275Z,51.00
2018-04-27T21:32:39.933Z,51.00
2018-04-27T21:35:07.430Z,51.10
2018-04-27T21:37:36.908Z,51.20
2018-04-27T21:40:05.356Z,51.50
2018-04-27T21:42:32.884Z,51.50
2018-04-27T21:45:00.526Z,51.60
2018-04-27T21:47:32.384Z,51.80
2018-04-27T21:50:02.371Z,51.80
2018-04-27T21:52:39.616Z,52.00
2018-04-27T21:55:07.203Z,52.20
2018-04-27T21:57:40.695Z,52.20
2018-04-27T22:00:25.874Z,52.40
2018-04-27T22:03:09.162Z,52.50
2018-04-27T22:06:07.203Z,52.50
2018-04-27T22:08:42.389Z,52.60
2018-04-27T22:11:26.634Z,52.60
2018-04-27T22:13:54.307Z,52.70
2018-04-27T22:19:19.296Z,52.80
2018-04-27T22:21:46.749Z,53.10
2018-04-27T22:24:14.981Z,53.40
2018-04-27T22:26:46.198Z,54.10
2018-04-27T22:29:22.386Z,53.60
2018-04-27T22:31:49.846Z,53.70
2018-04-27T22:34:17.673Z,53.80
2018-04-27T22:36:45.132Z,53.80
2018-04-27T22:42:11.722Z,53.80
2018-04-27T22:44:58.118Z,54.00
2018-04-27T22:47:29.263Z,54.20
2018-04-27T22:49:56.734Z,54.20
2018-04-27T22:52:24.206Z,54.30
2018-04-27T22:54:55.897Z,54.90
2018-04-27T22:57:28.866Z,54.80
2018-04-27T22:59:58.082Z,55.00
2018-04-27T23:02:25.575Z,55.10
2018-04-27T23:04:56.843Z,55.10
2018-04-27T23:07:25.051Z,55.30
2018-04-27T23:10:01.606Z,55.50
2018-04-27T23:12:30.755Z,55.50
2018-04-27T23:14:58.211Z,55.40
2018-04-27T23:17:25.695Z,55.40
2018-04-27T23:20:03.045Z,55.60
2018-04-27T23:22:33.836Z,55.70
2018-04-27T23:25:05.834Z,55.90
2018-04-27T23:27:37.098Z,55.90
2018-04-27T23:30:05.284Z,56.00
2018-04-27T23:32:32.750Z,56.10
2018-04-27T23:35:00.206Z,56.00
2018-04-27T23:37:27.670Z,56.00
2018-04-27T23:39:55.130Z,55.80
2018-04-27T23:42:22.594Z,55.70
2018-04-27T23:44:50.050Z,55.50
2018-04-27T23:47:17.514Z,55.40
2018-04-27T23:49:44.973Z,55.30
2018-04-27T23:52:12.442Z,55.30
2018-04-27T23:54:39.895Z,55.40
2018-04-27T23:57:07.366Z,55.60
2018-04-27T23:59:35.638Z,55.70
